createdAt,value
2023-05-23T00:01:09.107Z,9.50
2023-05-23T00:03:37.769Z,7.90
2023-05-23T00:06:06.732Z,9.17
2023-05-23T00:08:34.058Z,8.80
2023-05-23T00:11:01.440Z,9.30
2023-05-23T00:13:28.732Z,10.50
2023-05-23T00:15:56.514Z,9.07
2023-05-23T00:18:24.977Z,9.27
2023-05-23T00:20:52.513Z,8.87
2023-05-23T00:23:21.031Z,8.27
2023-05-23T00:25:53.562Z,9.27
2023-05-23T00:28:21.327Z,9.90
2023-05-23T00:30:49.394Z,8.53
2023-05-23T00:33:17.991Z,8.87
2023-05-23T00:35:45.603Z,8.30
2023-05-23T00:38:14.451Z,9.17
2023-05-23T00:40:41.799Z,8.73
2023-05-23T00:43:10.046Z,9.10
2023-05-23T00:45:37.496Z,9.17
2023-05-23T00:48:06.362Z,9.50
2023-05-23T00:50:34.228Z,8.57
2023-05-23T00:53:01.932Z,8.30
2023-05-23T00:55:30.300Z,8.63
2023-05-23T00:57:57.976Z,8.63
2023-05-23T01:00:26.255Z,8.10
2023-05-23T01:02:54.029Z,8.20
2023-05-23T01:05:25.054Z,8.63
2023-05-23T01:07:52.957Z,9.80
2023-05-23T01:10:24.997Z,21.73
2023-05-23T01:13:17.278Z,19.80
2023-05-23T01:16:06.383Z,13.30
2023-05-23T01:18:46.571Z,12.63
2023-05-23T01:21:18.136Z,9.37
2023-05-23T01:24:13.376Z,9.63
2023-05-23T01:27:02.669Z,8.97
2023-05-23T01:29:36.672Z,8.63
2023-05-23T01:32:07.970Z,8.97
2023-05-23T01:34:38.457Z,8.60
2023-05-23T01:37:10.952Z,8.83
2023-05-23T01:39:39.343Z,8.50
2023-05-23T01:42:09.855Z,8.90
2023-05-23T01:44:38.681Z,8.80
2023-05-23T01:47:08.511Z,8.50
2023-05-23T01:49:38.032Z,7.90
2023-05-23T01:52:06.308Z,9.60
2023-05-23T01:54:35.413Z,9.50
2023-05-23T01:57:04.173Z,10.53
2023-05-23T01:59:33.050Z,9.40
2023-05-23T02:02:01.246Z,10.27
2023-05-23T02:04:28.857Z,9.53
2023-05-23T02:06:56.229Z,9.50
2023-05-23T02:09:23.747Z,9.00
2023-05-23T02:11:51.217Z,8.27
2023-05-23T02:14:19.716Z,8.33
2023-05-23T02:16:47.146Z,8.87
2023-05-23T02:19:15.279Z,8.57
2023-05-23T02:21:42.660Z,11.33
2023-05-23T02:24:09.993Z,9.43
2023-05-23T02:26:37.685Z,9.20
2023-05-23T02:29:05.017Z,9.67
2023-05-23T02:31:32.792Z,10.83
2023-05-23T02:34:00.189Z,9.07
2023-05-23T02:36:28.446Z,9.73
2023-05-23T02:38:56.938Z,11.27
2023-05-23T02:41:25.006Z,11.27
2023-05-23T02:43:52.466Z,12.20
2023-05-23T02:46:19.920Z,11.83
2023-05-23T02:48:48.690Z,10.63
2023-05-23T02:51:16.298Z,11.40
2023-05-23T02:53:44.168Z,11.00
2023-05-23T02:56:13.396Z,10.70
2023-05-23T02:58:40.835Z,11.73
2023-05-23T03:01:12.090Z,12.10
2023-05-23T03:03:40.299Z,11.40
2023-05-23T03:06:10.613Z,10.90
2023-05-23T03:08:38.076Z,10.83
2023-05-23T03:11:05.554Z,10.73
2023-05-23T03:13:32.888Z,11.50
2023-05-23T03:16:00.370Z,10.93
2023-05-23T03:18:28.136Z,10.50
2023-05-23T03:20:56.379Z,10.70
2023-05-23T03:23:24.664Z,11.60
2023-05-23T03:25:52.033Z,9.80
2023-05-23T03:28:19.381Z,11.20
2023-05-23T03:30:46.841Z,9.87
2023-05-23T03:33:14.258Z,9.90
2023-05-23T03:35:42.348Z,11.17
2023-05-23T03:38:09.908Z,9.57
2023-05-23T03:40:37.589Z,10.63
2023-05-23T03:43:06.696Z,10.20
2023-05-23T03:45:36.835Z,10.73
2023-05-23T03:48:11.243Z,10.87
2023-05-23T03:50:38.757Z,9.83
2023-05-23T03:53:07.405Z,10.93
2023-05-23T03:55:36.130Z,11.20
2023-05-23T03:58:03.619Z,11.40
2023-05-23T04:00:31.240Z,10.77
2023-05-23T04:03:00.462Z,10.27
2023-05-23T04:05:27.864Z,16.47
2023-05-23T04:07:55.412Z,10.97
2023-05-23T04:10:23.441Z,11.23
2023-05-23T04:12:51.658Z,9.60
2023-05-23T04:15:21.498Z,10.47
2023-05-23T04:17:56.373Z,10.83
2023-05-23T04:20:24.998Z,11.23
2023-05-23T04:22:52.793Z,9.80
2023-05-23T04:25:20.707Z,11.33
2023-05-23T04:28:00.244Z,15.70
2023-05-23T04:30:30.552Z,12.63
2023-05-23T04:33:00.153Z,15.13
2023-05-23T04:35:29.543Z,13.77
2023-05-23T04:37:56.976Z,14.50
2023-05-23T04:40:26.586Z,19.60
2023-05-23T04:43:14.554Z,19.93
2023-05-23T04:45:55.148Z,20.37
2023-05-23T04:48:29.376Z,31.47
2023-05-23T04:50:57.459Z,19.23
2023-05-23T04:53:24.974Z,19.90
2023-05-23T04:55:52.704Z,23.57
2023-05-23T04:58:20.341Z,28.30
2023-05-23T05:00:48.080Z,18.03
2023-05-23T05:03:17.962Z,19.20
2023-05-23T05:05:46.660Z,15.33
2023-05-23T05:08:15.748Z,16.07
2023-05-23T05:10:43.880Z,15.53
2023-05-23T05:13:12.314Z,19.43
2023-05-23T05:15:45.181Z,17.83
2023-05-23T05:18:13.924Z,12.77
2023-05-23T05:20:42.313Z,22.73
2023-05-23T05:23:10.098Z,15.20
2023-05-23T05:25:38.388Z,17.93
2023-05-23T05:28:06.250Z,11.63
2023-05-23T05:30:39.007Z,18.03
2023-05-23T05:33:07.825Z,13.00
2023-05-23T05:35:38.358Z,13.50
2023-05-23T05:38:08.233Z,17.97
2023-05-23T05:40:35.809Z,13.97
2023-05-23T05:43:03.423Z,15.33
2023-05-23T05:45:31.125Z,12.00
2023-05-23T05:47:59.510Z,10.13
2023-05-23T05:50:27.689Z,15.63
2023-05-23T05:52:55.458Z,16.73
2023-05-23T05:55:23.604Z,12.27
2023-05-23T05:57:54.378Z,10.40
2023-05-23T06:00:22.591Z,14.10
2023-05-23T06:02:59.412Z,12.17
2023-05-23T06:05:37.567Z,18.40
2023-05-23T06:08:05.020Z,10.37
2023-05-23T06:10:32.893Z,10.13
2023-05-23T06:13:00.507Z,9.97
2023-05-23T06:15:28.205Z,9.83
2023-05-23T06:17:55.648Z,10.30
2023-05-23T06:20:24.708Z,9.50
2023-05-23T06:22:53.627Z,9.37
2023-05-23T06:25:21.208Z,9.17
2023-05-23T06:27:48.729Z,9.60
2023-05-23T06:30:16.499Z,9.47
2023-05-23T06:32:46.038Z,8.60
2023-05-23T06:35:13.933Z,9.67
2023-05-23T06:37:45.745Z,9.10
2023-05-23T06:40:16.161Z,8.77
2023-05-23T06:42:43.746Z,9.93
2023-05-23T06:45:20.130Z,10.87
2023-05-23T06:47:48.360Z,9.07
2023-05-23T06:50:20.082Z,9.40
2023-05-23T06:52:49.921Z,11.90
2023-05-23T06:55:19.593Z,9.17
2023-05-23T06:57:52.049Z,10.57
2023-05-23T07:00:21.603Z,21.63
2023-05-23T07:03:17.962Z,12.53
2023-05-23T07:05:47.475Z,12.27
2023-05-23T07:08:16.706Z,15.37
2023-05-23T07:10:55.622Z,13.30
2023-05-23T07:13:33.046Z,8.50
2023-05-23T07:16:00.924Z,8.53
2023-05-23T07:18:28.340Z,11.53
2023-05-23T07:20:57.818Z,8.97
2023-05-23T07:23:25.945Z,8.77
2023-05-23T07:26:01.880Z,11.03
2023-05-23T07:28:40.252Z,9.17
2023-05-23T07:31:09.547Z,9.23
2023-05-23T07:33:38.466Z,9.10
2023-05-23T07:36:08.327Z,10.17
2023-05-23T07:38:35.970Z,8.63
2023-05-23T07:41:11.623Z,8.60
2023-05-23T07:43:41.192Z,9.07
2023-05-23T07:46:09.236Z,9.20
2023-05-23T07:48:38.151Z,9.03
2023-05-23T07:51:06.060Z,9.57
2023-05-23T07:53:35.313Z,8.73
2023-05-23T07:56:04.285Z,11.63
2023-05-23T07:58:37.212Z,8.80
2023-05-23T08:01:05.108Z,8.97
2023-05-23T08:03:51.484Z,9.00
2023-05-23T08:06:25.424Z,9.93
2023-05-23T08:08:53.178Z,8.37
2023-05-23T08:11:20.822Z,8.57
2023-05-23T08:13:51.522Z,11.33
2023-05-23T08:16:48.446Z,9.50
2023-05-23T08:19:23.046Z,8.90
2023-05-23T08:21:53.224Z,9.07
2023-05-23T08:24:21.731Z,9.43
2023-05-23T08:26:50.465Z,10.73
2023-05-23T08:29:18.612Z,8.90
2023-05-23T08:31:46.077Z,9.20
2023-05-23T08:34:14.311Z,8.43
2023-05-23T08:36:43.190Z,9.00
2023-05-23T08:39:15.314Z,8.87
2023-05-23T08:41:52.642Z,9.13
2023-05-23T08:44:19.994Z,9.10
2023-05-23T08:46:53.803Z,9.00
2023-05-23T08:49:41.338Z,9.83
2023-05-23T08:52:13.634Z,8.77
2023-05-23T08:54:44.586Z,9.37
2023-05-23T08:57:13.996Z,9.17
2023-05-23T08:59:47.043Z,9.10
2023-05-23T09:02:16.873Z,8.67
2023-05-23T09:04:46.772Z,9.23
2023-05-23T09:07:19.751Z,9.23
2023-05-23T09:09:51.061Z,10.73
2023-05-23T09:12:18.570Z,8.67
2023-05-23T09:14:48.374Z,9.77
2023-05-23T09:17:19.711Z,9.87
2023-05-23T09:19:48.554Z,8.90
2023-05-23T09:22:28.738Z,9.27
2023-05-23T09:25:02.048Z,9.63
2023-05-23T09:27:31.150Z,8.87
2023-05-23T09:30:05.488Z,11.27
2023-05-23T09:32:32.918Z,8.53
2023-05-23T09:35:05.789Z,8.43
2023-05-23T09:37:39.203Z,9.20
2023-05-23T09:40:11.667Z,8.37
2023-05-23T09:42:44.180Z,9.93
2023-05-23T09:45:12.873Z,8.47
2023-05-23T09:47:49.046Z,9.20
2023-05-23T09:50:16.501Z,9.20
2023-05-23T09:52:44.117Z,7.60
2023-05-23T09:55:11.910Z,7.90
2023-05-23T09:57:44.215Z,8.33
2023-05-23T10:00:13.618Z,9.00
2023-05-23T10:03:15.059Z,8.43
2023-05-23T10:05:46.615Z,8.90
2023-05-23T10:08:31.253Z,8.70
2023-05-23T10:10:58.577Z,8.73
2023-05-23T10:13:27.380Z,9.50
2023-05-23T10:16:03.123Z,8.63
2023-05-23T10:18:34.903Z,8.30
2023-05-23T10:21:08.648Z,9.20
2023-05-23T10:23:37.697Z,8.13
2023-05-23T10:26:05.471Z,8.77
2023-05-23T10:28:33.126Z,9.20
2023-05-23T10:31:00.871Z,8.80
2023-05-23T10:33:34.378Z,8.35
2023-05-23T10:36:10.120Z,8.25
2023-05-23T10:39:13.282Z,7.82
2023-05-23T10:42:01.122Z,8.05
2023-05-23T10:44:30.821Z,7.43
2023-05-23T10:47:03.928Z,7.25
2023-05-23T10:49:55.046Z,8.18
2023-05-23T10:52:26.466Z,7.40
2023-05-23T10:54:56.250Z,6.65
2023-05-23T10:57:37.569Z,7.47
2023-05-23T11:00:16.351Z,7.95
2023-05-23T11:02:55.612Z,7.47
2023-05-23T11:05:25.109Z,8.13
2023-05-23T11:08:15.270Z,7.67
2023-05-23T11:10:54.113Z,7.90
2023-05-23T11:13:22.568Z,8.10
2023-05-23T11:15:50.760Z,7.33
2023-05-23T11:18:27.353Z,7.70
2023-05-23T11:20:55.745Z,7.45
2023-05-23T11:23:24.269Z,7.60
2023-05-23T11:25:53.824Z,12.52
2023-05-23T11:28:21.383Z,8.77
2023-05-23T11:30:50.025Z,7.53
2023-05-23T11:33:18.622Z,7.72
2023-05-23T11:35:48.192Z,7.82
2023-05-23T11:38:16.827Z,7.20
2023-05-23T11:40:46.436Z,7.95
2023-05-23T11:43:16.729Z,7.75
2023-05-23T11:45:46.792Z,8.63
2023-05-23T11:48:16.634Z,8.03
2023-05-23T11:50:52.498Z,7.75
2023-05-23T11:53:22.155Z,8.15
2023-05-23T11:55:53.092Z,7.60
2023-05-23T11:58:27.987Z,8.00
2023-05-23T12:01:01.273Z,7.30
2023-05-23T12:03:28.932Z,7.28
2023-05-23T12:05:56.551Z,6.30
2023-05-23T12:08:25.289Z,6.25
2023-05-23T12:11:02.935Z,7.38
2023-05-23T12:13:30.876Z,6.50
2023-05-23T12:16:00.728Z,6.38
2023-05-23T12:18:31.992Z,6.20
2023-05-23T12:21:05.725Z,6.80
2023-05-23T12:23:34.896Z,6.72
2023-05-23T12:26:06.992Z,6.30
2023-05-23T12:28:37.191Z,5.90
2023-05-23T12:31:17.465Z,5.88
2023-05-23T12:33:48.032Z,5.45
2023-05-23T12:36:22.839Z,6.22
2023-05-23T12:38:50.252Z,6.25
2023-05-23T12:41:20.006Z,6.28
2023-05-23T12:43:52.668Z,11.05
2023-05-23T12:46:22.010Z,6.88
2023-05-23T12:48:49.460Z,6.32
2023-05-23T12:51:17.289Z,6.95
2023-05-23T12:53:44.983Z,6.72
2023-05-23T12:56:12.381Z,6.40
2023-05-23T12:58:39.871Z,5.88
2023-05-23T13:01:07.554Z,6.38
2023-05-23T13:03:38.109Z,6.15
2023-05-23T13:06:07.090Z,6.10
2023-05-23T13:08:34.501Z,5.82
2023-05-23T13:11:01.898Z,5.55
2023-05-23T13:13:29.854Z,5.93
2023-05-23T13:15:57.503Z,5.47
2023-05-23T13:18:25.566Z,4.97
2023-05-23T13:20:53.113Z,5.43
2023-05-23T13:23:21.195Z,6.68
2023-05-23T13:25:50.532Z,6.72
2023-05-23T13:28:18.738Z,6.50
2023-05-23T13:30:47.280Z,8.52
2023-05-23T13:33:16.349Z,7.35
2023-05-23T13:35:45.595Z,7.27
2023-05-23T13:38:13.001Z,6.97
2023-05-23T13:40:40.869Z,6.93
2023-05-23T13:43:08.637Z,7.23
2023-05-23T13:45:36.413Z,7.25
2023-05-23T13:48:03.903Z,7.50
2023-05-23T13:50:31.528Z,8.00
2023-05-23T13:52:59.168Z,9.47
2023-05-23T13:55:27.599Z,7.50
2023-05-23T13:57:55.004Z,8.00
2023-05-23T14:00:22.853Z,8.93
2023-05-23T14:02:50.667Z,9.33
2023-05-23T14:05:19.561Z,8.40
2023-05-23T14:07:47.455Z,9.40
2023-05-23T14:10:17.279Z,9.03
2023-05-23T14:12:44.691Z,9.07
2023-05-23T14:15:12.510Z,9.13
2023-05-23T14:17:39.935Z,8.23
2023-05-23T14:20:08.676Z,8.20
2023-05-23T14:22:37.145Z,8.70
2023-05-23T14:25:05.336Z,10.53
2023-05-23T14:27:33.757Z,8.90
2023-05-23T14:30:01.362Z,6.93
2023-05-23T14:32:29.062Z,9.87
2023-05-23T14:34:56.602Z,6.03
2023-05-23T14:37:23.937Z,7.87
2023-05-23T14:39:51.417Z,9.27
2023-05-23T14:42:18.729Z,5.77
2023-05-23T14:44:46.419Z,7.10
2023-05-23T14:47:13.835Z,6.60
2023-05-23T14:49:41.558Z,6.87
2023-05-23T14:52:08.900Z,8.97
2023-05-23T14:54:36.271Z,5.50
2023-05-23T14:57:03.748Z,7.83
2023-05-23T14:59:32.105Z,7.27
2023-05-23T15:01:59.600Z,8.40
2023-05-23T15:04:27.339Z,7.50
2023-05-23T15:06:54.806Z,9.30
2023-05-23T15:09:22.757Z,8.43
2023-05-23T15:11:51.117Z,6.90
2023-05-23T15:14:18.555Z,7.57
2023-05-23T15:16:46.573Z,9.13
2023-05-23T15:19:14.073Z,8.27
2023-05-23T15:21:49.916Z,9.33
2023-05-23T15:24:18.885Z,8.23
2023-05-23T15:26:46.512Z,7.87
2023-05-23T15:29:15.420Z,8.40
2023-05-23T15:31:42.924Z,7.43
2023-05-23T15:34:10.649Z,7.40
2023-05-23T15:36:40.937Z,6.73
2023-05-23T15:39:08.519Z,6.63
2023-05-23T15:41:35.868Z,6.83
2023-05-23T15:44:03.344Z,5.90
2023-05-23T15:46:31.109Z,6.63
2023-05-23T15:49:05.021Z,9.43
2023-05-23T15:51:41.122Z,7.17
2023-05-23T15:54:08.562Z,6.43
2023-05-23T15:56:36.472Z,6.77
2023-05-23T15:59:03.925Z,6.73
2023-05-23T16:01:31.616Z,6.30
2023-05-23T16:03:59.099Z,6.63
2023-05-23T16:06:28.360Z,6.63
2023-05-23T16:09:00.507Z,6.70
2023-05-23T16:11:28.257Z,6.67
2023-05-23T16:13:56.086Z,7.07
2023-05-23T16:16:23.501Z,6.37
2023-05-23T16:18:51.121Z,6.47
2023-05-23T16:21:20.662Z,6.13
2023-05-23T16:23:49.679Z,6.90
2023-05-23T16:26:18.668Z,6.90
2023-05-23T16:28:46.452Z,6.23
2023-05-23T16:31:15.659Z,7.20
2023-05-23T16:33:44.008Z,6.87
2023-05-23T16:36:11.481Z,7.07
2023-05-23T16:38:38.862Z,7.13
2023-05-23T16:41:06.323Z,7.50
2023-05-23T16:43:34.662Z,6.50
2023-05-23T16:46:02.599Z,6.53
2023-05-23T16:48:30.042Z,6.90
2023-05-23T16:50:58.061Z,7.80
2023-05-23T16:53:25.473Z,7.27
2023-05-23T16:55:52.823Z,7.73
2023-05-23T16:58:21.273Z,7.67
2023-05-23T17:00:49.210Z,7.50
2023-05-23T17:03:16.723Z,7.90
2023-05-23T17:05:44.308Z,8.00
2023-05-23T17:08:12.133Z,7.33
2023-05-23T17:10:40.205Z,8.37
2023-05-23T17:13:09.164Z,9.00
2023-05-23T17:15:36.883Z,12.13
2023-05-23T17:18:04.492Z,7.93
2023-05-23T17:20:32.461Z,8.13
2023-05-23T17:23:00.276Z,8.10
2023-05-23T17:25:27.614Z,8.70
2023-05-23T17:27:55.803Z,8.97
2023-05-23T17:30:23.237Z,8.57
2023-05-23T17:32:51.054Z,7.37
2023-05-23T17:35:18.802Z,7.17
2023-05-23T17:37:46.701Z,6.83
2023-05-23T17:40:16.151Z,6.60
2023-05-23T17:42:43.971Z,6.73
2023-05-23T17:45:11.879Z,6.80
2023-05-23T17:47:39.666Z,7.83
2023-05-23T17:50:09.083Z,8.23
2023-05-23T17:52:36.541Z,7.50
2023-05-23T17:55:04.429Z,8.53
2023-05-23T17:57:31.997Z,9.07
2023-05-23T17:59:59.749Z,7.93
2023-05-23T18:02:28.138Z,8.27
2023-05-23T18:04:55.914Z,7.37
2023-05-23T18:07:23.372Z,7.23
2023-05-23T18:09:51.024Z,8.13
2023-05-23T18:12:18.952Z,7.00
2023-05-23T18:14:46.435Z,7.97
2023-05-23T18:17:13.802Z,6.93
2023-05-23T18:19:42.130Z,7.53
2023-05-23T18:22:09.646Z,7.60
2023-05-23T18:24:38.496Z,7.57
2023-05-23T18:27:06.145Z,8.20
2023-05-23T18:29:33.681Z,7.73
2023-05-23T18:32:01.698Z,8.07
2023-05-23T18:34:29.509Z,8.43
2023-05-23T18:36:56.909Z,8.97
2023-05-23T18:39:24.517Z,8.33
2023-05-23T18:41:52.384Z,8.57
2023-05-23T18:44:21.131Z,8.27
2023-05-23T18:46:48.818Z,9.23
2023-05-23T18:49:16.336Z,8.23
2023-05-23T18:51:44.035Z,8.30
2023-05-23T18:54:11.382Z,7.40
2023-05-23T18:56:38.836Z,8.57
2023-05-23T18:59:06.170Z,9.00
2023-05-23T19:01:33.752Z,8.47
2023-05-23T19:04:01.707Z,9.50
2023-05-23T19:06:29.273Z,9.10
2023-05-23T19:08:57.134Z,8.80
2023-05-23T19:11:24.737Z,8.73
2023-05-23T19:13:52.240Z,8.53
2023-05-23T19:16:21.265Z,8.33
2023-05-23T19:18:48.715Z,8.87
2023-05-23T19:21:16.513Z,9.27
2023-05-23T19:23:44.042Z,8.37
2023-05-23T19:26:13.661Z,9.00
2023-05-23T19:28:41.363Z,8.70
2023-05-23T19:31:09.497Z,10.27
2023-05-23T19:33:37.055Z,8.70
2023-05-23T19:36:05.715Z,8.67
2023-05-23T19:38:33.077Z,9.40
2023-05-23T19:41:00.582Z,8.80
2023-05-23T19:43:27.860Z,9.23
2023-05-23T19:45:55.607Z,8.13
2023-05-23T19:48:23.128Z,8.13
2023-05-23T19:50:50.513Z,9.07
2023-05-23T19:53:17.961Z,8.67
2023-05-23T19:55:45.994Z,7.83
2023-05-23T19:58:13.370Z,8.10
2023-05-23T20:00:41.475Z,8.23
2023-05-23T20:03:09.676Z,7.87
2023-05-23T20:05:37.135Z,9.07
2023-05-23T20:08:05.023Z,8.23
2023-05-23T20:10:32.467Z,8.07
2023-05-23T20:12:59.975Z,8.23
2023-05-23T20:15:38.619Z,8.37
2023-05-23T20:18:08.272Z,8.60
2023-05-23T20:20:36.237Z,8.27
2023-05-23T20:23:04.387Z,8.40
2023-05-23T20:25:31.900Z,8.80
2023-05-23T20:27:59.618Z,8.87
2023-05-23T20:30:28.074Z,9.10
2023-05-23T20:32:55.662Z,8.23
2023-05-23T20:35:23.711Z,8.93
2023-05-23T20:37:52.022Z,8.33
2023-05-23T20:40:20.497Z,9.10
2023-05-23T20:42:48.092Z,9.17
2023-05-23T20:45:16.118Z,8.80
2023-05-23T20:47:43.815Z,7.73
2023-05-23T20:50:13.065Z,7.87
2023-05-23T20:52:43.014Z,8.37
2023-05-23T20:55:11.010Z,7.87
2023-05-23T20:57:38.538Z,7.93
2023-05-23T21:00:11.604Z,7.90
2023-05-23T21:02:43.269Z,7.90
2023-05-23T21:05:11.957Z,8.20
2023-05-23T21:07:39.650Z,7.20
2023-05-23T21:10:07.678Z,7.63
2023-05-23T21:12:36.008Z,8.17
2023-05-23T21:15:03.744Z,7.50
2023-05-23T21:17:31.378Z,7.67
2023-05-23T21:19:58.730Z,7.40
2023-05-23T21:22:26.260Z,8.40
2023-05-23T21:24:53.761Z,7.97
2023-05-23T21:27:21.628Z,7.57
2023-05-23T21:29:49.334Z,8.07
2023-05-23T21:32:16.889Z,7.90
2023-05-23T21:34:44.334Z,8.80
2023-05-23T21:37:11.802Z,9.10
2023-05-23T21:39:50.527Z,9.60
2023-05-23T21:42:19.728Z,8.40
2023-05-23T21:44:47.168Z,8.63
2023-05-23T21:47:14.514Z,8.53
2023-05-23T21:49:42.145Z,9.20
2023-05-23T21:52:09.467Z,8.47
2023-05-23T21:54:37.143Z,8.53
2023-05-23T21:57:04.962Z,8.07
2023-05-23T21:59:32.578Z,8.33
2023-05-23T22:02:00.379Z,8.93
2023-05-23T22:04:28.120Z,8.53
2023-05-23T22:06:55.842Z,8.83
2023-05-23T22:09:23.274Z,8.70
2023-05-23T22:11:50.853Z,7.97
2023-05-23T22:14:18.680Z,8.07
2023-05-23T22:16:46.355Z,8.03
2023-05-23T22:19:18.127Z,8.40
2023-05-23T22:21:46.024Z,8.33
2023-05-23T22:24:13.556Z,8.43
2023-05-23T22:26:41.522Z,8.47
2023-05-23T22:29:09.078Z,8.63
2023-05-23T22:31:37.049Z,7.73
2023-05-23T22:34:04.564Z,8.50
2023-05-23T22:36:33.633Z,8.77
2023-05-23T22:39:05.761Z,8.93
2023-05-23T22:41:33.451Z,8.20
2023-05-23T22:44:01.227Z,7.83
2023-05-23T22:46:28.923Z,7.73
2023-05-23T22:48:56.661Z,7.60
2023-05-23T22:51:24.831Z,7.47
2023-05-23T22:53:53.038Z,7.07
2023-05-23T22:56:20.793Z,7.33
2023-05-23T22:58:48.282Z,7.80
2023-05-23T23:01:15.870Z,7.23
2023-05-23T23:03:43.690Z,7.77
2023-05-23T23:06:11.220Z,7.47
2023-05-23T23:08:38.844Z,6.83
2023-05-23T23:11:06.336Z,8.43
2023-05-23T23:13:33.798Z,7.10
2023-05-23T23:16:01.294Z,6.73
2023-05-23T23:18:28.846Z,6.93
2023-05-23T23:20:56.306Z,7.10
2023-05-23T23:23:23.853Z,6.90
2023-05-23T23:25:52.702Z,7.60
2023-05-23T23:28:20.989Z,6.63
2023-05-23T23:30:48.386Z,6.90
2023-05-23T23:33:16.161Z,6.83
2023-05-23T23:35:48.688Z,6.77
2023-05-23T23:38:16.722Z,6.60
2023-05-23T23:40:45.881Z,6.93
2023-05-23T23:43:13.994Z,6.47
2023-05-23T23:45:41.766Z,5.63
2023-05-23T23:48:09.654Z,5.50
2023-05-23T23:50:37.135Z,6.13
2023-05-23T23:53:04.659Z,5.70
2023-05-23T23:55:32.262Z,5.40
2023-05-23T23:57:59.760Z,5.83
